sensor_id;sensor_type;location;lat;lon;timestamp;P1;durP1;ratioP1;P2;durP2;ratioP2
45522;SDS011;31254;51.680;5.394;2022-12-07T00:01:18;10.90;;;6.97;;
45522;SDS011;31254;51.680;5.394;2022-12-07T00:03:46;11.23;;;7.43;;
45522;SDS011;31254;51.680;5.394;2022-12-07T00:06:17;10.87;;;6.93;;
45522;SDS011;31254;51.680;5.394;2022-12-07T00:08:45;12.97;;;7.50;;
45522;SDS011;31254;51.680;5.394;2022-12-07T00:11:13;10.60;;;7.27;;
45522;SDS011;31254;51.680;5.394;2022-12-07T00:13:43;13.77;;;7.17;;
45522;SDS011;31254;51.680;5.394;2022-12-07T00:16:12;10.03;;;7.27;;
45522;SDS011;31254;51.680;5.394;2022-12-07T00:18:40;10.40;;;7.00;;
45522;SDS011;31254;51.680;5.394;2022-12-07T00:21:18;11.20;;;7.03;;
45522;SDS011;31254;51.680;5.394;2022-12-07T00:23:49;10.67;;;7.50;;
45522;SDS011;31254;51.680;5.394;2022-12-07T00:26:21;10.23;;;6.72;;
45522;SDS011;31254;51.680;5.394;2022-12-07T00:28:53;11.83;;;7.37;;
45522;SDS011;31254;51.680;5.394;2022-12-07T00:31:22;16.77;;;7.93;;
45522;SDS011;31254;51.680;5.394;2022-12-07T00:33:51;11.73;;;7.90;;
45522;SDS011;31254;51.680;5.394;2022-12-07T00:36:19;11.03;;;7.60;;
45522;SDS011;31254;51.680;5.394;2022-12-07T00:38:53;14.30;;;7.90;;
45522;SDS011;31254;51.680;5.394;2022-12-07T00:41:21;13.87;;;6.97;;
45522;SDS011;31254;51.680;5.394;2022-12-07T00:43:52;12.83;;;7.23;;
45522;SDS011;31254;51.680;5.394;2022-12-07T00:46:19;10.43;;;6.67;;
45522;SDS011;31254;51.680;5.394;2022-12-07T00:48:47;11.90;;;6.77;;
45522;SDS011;31254;51.680;5.394;2022-12-07T00:51:15;9.83;;;6.87;;
45522;SDS011;31254;51.680;5.394;2022-12-07T00:53:46;12.23;;;7.10;;
45522;SDS011;31254;51.680;5.394;2022-12-07T00:56:23;13.50;;;7.17;;
45522;SDS011;31254;51.680;5.394;2022-12-07T00:58:52;14.07;;;6.90;;
45522;SDS011;31254;51.680;5.394;2022-12-07T01:01:27;10.10;;;6.33;;
45522;SDS011;31254;51.680;5.394;2022-12-07T01:03:55;13.63;;;6.73;;
45522;SDS011;31254;51.680;5.394;2022-12-07T01:06:23;14.00;;;7.70;;
45522;SDS011;31254;51.680;5.394;2022-12-07T01:08:53;12.53;;;7.60;;
45522;SDS011;31254;51.680;5.394;2022-12-07T01:11:21;15.53;;;7.60;;
45522;SDS011;31254;51.680;5.394;2022-12-07T01:13:52;10.63;;;6.97;;
45522;SDS011;31254;51.680;5.394;2022-12-07T01:16:20;13.17;;;6.60;;
45522;SDS011;31254;51.680;5.394;2022-12-07T01:18:49;12.10;;;6.47;;
45522;SDS011;31254;51.680;5.394;2022-12-07T01:21:18;12.33;;;6.87;;
45522;SDS011;31254;51.680;5.394;2022-12-07T01:23:49;15.60;;;6.70;;
45522;SDS011;31254;51.680;5.394;2022-12-07T01:26:17;15.67;;;6.77;;
45522;SDS011;31254;51.680;5.394;2022-12-07T01:28:46;14.20;;;6.80;;
45522;SDS011;31254;51.680;5.394;2022-12-07T01:31:13;12.43;;;6.50;;
45522;SDS011;31254;51.680;5.394;2022-12-07T01:33:47;11.13;;;6.40;;
45522;SDS011;31254;51.680;5.394;2022-12-07T01:36:17;12.50;;;6.20;;
45522;SDS011;31254;51.680;5.394;2022-12-07T01:38:51;11.27;;;5.80;;
45522;SDS011;31254;51.680;5.394;2022-12-07T01:41:23;8.93;;;5.53;;
45522;SDS011;31254;51.680;5.394;2022-12-07T01:44:12;13.47;;;5.20;;
45522;SDS011;31254;51.680;5.394;2022-12-07T01:46:59;15.37;;;4.53;;
45522;SDS011;31254;51.680;5.394;2022-12-07T01:49:29;11.17;;;5.17;;
45522;SDS011;31254;51.680;5.394;2022-12-07T01:52:17;10.20;;;4.27;;
45522;SDS011;31254;51.680;5.394;2022-12-07T01:55:03;8.40;;;4.50;;
45522;SDS011;31254;51.680;5.394;2022-12-07T01:57:32;12.40;;;4.20;;
45522;SDS011;31254;51.680;5.394;2022-12-07T02:00:01;14.00;;;4.67;;
45522;SDS011;31254;51.680;5.394;2022-12-07T02:02:30;11.93;;;4.20;;
45522;SDS011;31254;51.680;5.394;2022-12-07T02:05:01;7.77;;;4.03;;
45522;SDS011;31254;51.680;5.394;2022-12-07T02:07:29;11.63;;;4.17;;
45522;SDS011;31254;51.680;5.394;2022-12-07T02:10:11;9.30;;;4.50;;
45522;SDS011;31254;51.680;5.394;2022-12-07T02:12:49;8.93;;;4.13;;
45522;SDS011;31254;51.680;5.394;2022-12-07T02:15:20;7.17;;;3.93;;
45522;SDS011;31254;51.680;5.394;2022-12-07T02:18:07;11.73;;;4.17;;
45522;SDS011;31254;51.680;5.394;2022-12-07T02:21:31;11.03;;;4.10;;
45522;SDS011;31254;51.680;5.394;2022-12-07T02:26:54;7.87;;;3.47;;
45522;SDS011;31254;51.680;5.394;2022-12-07T02:29:05;8.80;;;3.47;;
45522;SDS011;31254;51.680;5.394;2022-12-07T02:31:36;9.50;;;3.80;;
45522;SDS011;31254;51.680;5.394;2022-12-07T02:34:30;8.83;;;4.27;;
45522;SDS011;31254;51.680;5.394;2022-12-07T02:37:19;9.57;;;3.93;;
45522;SDS011;31254;51.680;5.394;2022-12-07T02:40:18;7.97;;;4.20;;
45522;SDS011;31254;51.680;5.394;2022-12-07T02:42:46;8.67;;;4.00;;
45522;SDS011;31254;51.680;5.394;2022-12-07T02:45:17;10.50;;;4.90;;
45522;SDS011;31254;51.680;5.394;2022-12-07T02:47:51;9.87;;;4.13;;
45522;SDS011;31254;51.680;5.394;2022-12-07T02:50:22;6.93;;;3.73;;
45522;SDS011;31254;51.680;5.394;2022-12-07T02:52:51;11.03;;;4.30;;
45522;SDS011;31254;51.680;5.394;2022-12-07T02:55:18;8.50;;;4.67;;
45522;SDS011;31254;51.680;5.394;2022-12-07T02:58:03;11.87;;;4.10;;
45522;SDS011;31254;51.680;5.394;2022-12-07T03:00:42;8.43;;;4.03;;
45522;SDS011;31254;51.680;5.394;2022-12-07T03:03:16;6.63;;;4.20;;
45522;SDS011;31254;51.680;5.394;2022-12-07T03:05:50;10.43;;;4.63;;
45522;SDS011;31254;51.680;5.394;2022-12-07T03:16:31;10.97;;;3.70;;
45522;SDS011;31254;51.680;5.394;2022-12-07T03:19:13;7.57;;;3.30;;
45522;SDS011;31254;51.680;5.394;2022-12-07T03:21:47;7.83;;;3.13;;
45522;SDS011;31254;51.680;5.394;2022-12-07T03:24:21;7.33;;;2.73;;
45522;SDS011;31254;51.680;5.394;2022-12-07T03:27:03;13.07;;;2.73;;
45522;SDS011;31254;51.680;5.394;2022-12-07T03:29:36;13.83;;;2.63;;
45522;SDS011;31254;51.680;5.394;2022-12-07T03:32:23;8.97;;;2.47;;
45522;SDS011;31254;51.680;5.394;2022-12-07T03:35:00;8.13;;;2.37;;
45522;SDS011;31254;51.680;5.394;2022-12-07T03:37:30;5.00;;;2.23;;
45522;SDS011;31254;51.680;5.394;2022-12-07T03:42:39;6.37;;;2.30;;
45522;SDS011;31254;51.680;5.394;2022-12-07T03:45:06;7.17;;;2.23;;
45522;SDS011;31254;51.680;5.394;2022-12-07T03:47:46;4.87;;;2.07;;
45522;SDS011;31254;51.680;5.394;2022-12-07T03:50:28;6.30;;;1.97;;
45522;SDS011;31254;51.680;5.394;2022-12-07T03:53:05;5.93;;;1.90;;
45522;SDS011;31254;51.680;5.394;2022-12-07T03:55:38;10.23;;;2.40;;
45522;SDS011;31254;51.680;5.394;2022-12-07T03:58:12;6.20;;;2.40;;
45522;SDS011;31254;51.680;5.394;2022-12-07T04:00:45;11.53;;;2.10;;
45522;SDS011;31254;51.680;5.394;2022-12-07T04:03:13;7.25;;;2.15;;
45522;SDS011;31254;51.680;5.394;2022-12-07T04:05:39;9.57;;;2.10;;
45522;SDS011;31254;51.680;5.394;2022-12-07T04:08:09;6.40;;;2.70;;
45522;SDS011;31254;51.680;5.394;2022-12-07T04:10:36;5.10;;;2.50;;
45522;SDS011;31254;51.680;5.394;2022-12-07T04:13:02;6.33;;;2.27;;
45522;SDS011;31254;51.680;5.394;2022-12-07T04:15:29;8.03;;;2.47;;
45522;SDS011;31254;51.680;5.394;2022-12-07T04:17:56;4.93;;;2.63;;
45522;SDS011;31254;51.680;5.394;2022-12-07T04:20:23;9.13;;;2.40;;
45522;SDS011;31254;51.680;5.394;2022-12-07T04:22:50;4.65;;;2.05;;
45522;SDS011;31254;51.680;5.394;2022-12-07T04:25:16;8.00;;;2.57;;
45522;SDS011;31254;51.680;5.394;2022-12-07T04:27:43;7.37;;;2.00;;
45522;SDS011;31254;51.680;5.394;2022-12-07T04:30:09;7.20;;;2.37;;
45522;SDS011;31254;51.680;5.394;2022-12-07T04:32:36;6.50;;;2.37;;
45522;SDS011;31254;51.680;5.394;2022-12-07T04:35:03;5.83;;;1.80;;
45522;SDS011;31254;51.680;5.394;2022-12-07T04:37:30;3.03;;;1.77;;
45522;SDS011;31254;51.680;5.394;2022-12-07T04:39:57;7.30;;;2.17;;
45522;SDS011;31254;51.680;5.394;2022-12-07T04:42:23;8.90;;;1.90;;
45522;SDS011;31254;51.680;5.394;2022-12-07T04:44:50;7.57;;;2.03;;
45522;SDS011;31254;51.680;5.394;2022-12-07T04:47:21;5.90;;;1.83;;
45522;SDS011;31254;51.680;5.394;2022-12-07T04:49:48;11.77;;;2.50;;
45522;SDS011;31254;51.680;5.394;2022-12-07T04:52:14;7.80;;;2.00;;
45522;SDS011;31254;51.680;5.394;2022-12-07T04:54:41;5.77;;;1.80;;
45522;SDS011;31254;51.680;5.394;2022-12-07T04:57:07;8.80;;;1.67;;
45522;SDS011;31254;51.680;5.394;2022-12-07T04:59:34;8.50;;;1.90;;
45522;SDS011;31254;51.680;5.394;2022-12-07T05:02:10;3.10;;;1.93;;
45522;SDS011;31254;51.680;5.394;2022-12-07T05:04:37;3.93;;;1.80;;
45522;SDS011;31254;51.680;5.394;2022-12-07T05:07:04;4.20;;;2.03;;
45522;SDS011;31254;51.680;5.394;2022-12-07T05:09:30;8.13;;;1.83;;
45522;SDS011;31254;51.680;5.394;2022-12-07T05:11:59;9.17;;;2.40;;
45522;SDS011;31254;51.680;5.394;2022-12-07T05:14:26;6.10;;;2.20;;
45522;SDS011;31254;51.680;5.394;2022-12-07T05:16:52;5.77;;;1.57;;
45522;SDS011;31254;51.680;5.394;2022-12-07T05:19:20;4.10;;;2.10;;
45522;SDS011;31254;51.680;5.394;2022-12-07T05:21:46;4.03;;;1.70;;
45522;SDS011;31254;51.680;5.394;2022-12-07T05:24:14;6.57;;;2.07;;
45522;SDS011;31254;51.680;5.394;2022-12-07T05:26:44;12.03;;;2.87;;
45522;SDS011;31254;51.680;5.394;2022-12-07T05:29:12;7.17;;;2.40;;
45522;SDS011;31254;51.680;5.394;2022-12-07T05:31:40;7.63;;;2.27;;
45522;SDS011;31254;51.680;5.394;2022-12-07T05:34:09;6.23;;;2.00;;
45522;SDS011;31254;51.680;5.394;2022-12-07T05:36:36;5.80;;;1.83;;
45522;SDS011;31254;51.680;5.394;2022-12-07T05:39:05;10.43;;;2.30;;
45522;SDS011;31254;51.680;5.394;2022-12-07T05:41:33;5.17;;;2.17;;
45522;SDS011;31254;51.680;5.394;2022-12-07T05:44:19;5.97;;;2.20;;
45522;SDS011;31254;51.680;5.394;2022-12-07T05:46:45;5.23;;;2.07;;
45522;SDS011;31254;51.680;5.394;2022-12-07T05:49:12;8.87;;;2.53;;
45522;SDS011;31254;51.680;5.394;2022-12-07T05:51:41;7.20;;;2.10;;
45522;SDS011;31254;51.680;5.394;2022-12-07T05:54:08;6.87;;;2.30;;
45522;SDS011;31254;51.680;5.394;2022-12-07T05:56:34;5.37;;;2.30;;
45522;SDS011;31254;51.680;5.394;2022-12-07T05:59:01;6.53;;;2.40;;
45522;SDS011;31254;51.680;5.394;2022-12-07T06:01:46;8.03;;;2.87;;
45522;SDS011;31254;51.680;5.394;2022-12-07T06:04:15;5.90;;;2.60;;
45522;SDS011;31254;51.680;5.394;2022-12-07T06:06:43;5.53;;;2.70;;
45522;SDS011;31254;51.680;5.394;2022-12-07T06:09:09;8.23;;;2.67;;
45522;SDS011;31254;51.680;5.394;2022-12-07T06:11:36;8.30;;;2.93;;
45522;SDS011;31254;51.680;5.394;2022-12-07T06:14:21;6.63;;;2.70;;
45522;SDS011;31254;51.680;5.394;2022-12-07T06:16:51;6.47;;;3.07;;
45522;SDS011;31254;51.680;5.394;2022-12-07T06:19:20;6.53;;;2.93;;
45522;SDS011;31254;51.680;5.394;2022-12-07T06:21:49;7.83;;;3.40;;
45522;SDS011;31254;51.680;5.394;2022-12-07T06:24:16;6.23;;;3.27;;
45522;SDS011;31254;51.680;5.394;2022-12-07T06:26:43;8.63;;;3.50;;
45522;SDS011;31254;51.680;5.394;2022-12-07T06:29:13;8.43;;;3.90;;
45522;SDS011;31254;51.680;5.394;2022-12-07T06:31:40;9.80;;;4.13;;
45522;SDS011;31254;51.680;5.394;2022-12-07T06:34:11;14.17;;;4.40;;
45522;SDS011;31254;51.680;5.394;2022-12-07T06:36:40;11.37;;;4.67;;
45522;SDS011;31254;51.680;5.394;2022-12-07T06:39:07;9.67;;;4.53;;
45522;SDS011;31254;51.680;5.394;2022-12-07T06:41:36;19.87;;;9.90;;
45522;SDS011;31254;51.680;5.394;2022-12-07T06:44:04;16.77;;;6.73;;
45522;SDS011;31254;51.680;5.394;2022-12-07T06:46:34;9.97;;;5.60;;
45522;SDS011;31254;51.680;5.394;2022-12-07T06:49:02;12.40;;;5.37;;
45522;SDS011;31254;51.680;5.394;2022-12-07T06:51:33;9.47;;;5.10;;
45522;SDS011;31254;51.680;5.394;2022-12-07T06:54:03;7.27;;;4.57;;
45522;SDS011;31254;51.680;5.394;2022-12-07T06:56:30;8.17;;;4.53;;
45522;SDS011;31254;51.680;5.394;2022-12-07T06:58:57;10.93;;;4.70;;
45522;SDS011;31254;51.680;5.394;2022-12-07T07:01:28;7.83;;;4.77;;
45522;SDS011;31254;51.680;5.394;2022-12-07T07:03:57;11.87;;;6.50;;
45522;SDS011;31254;51.680;5.394;2022-12-07T07:06:24;14.70;;;8.13;;
45522;SDS011;31254;51.680;5.394;2022-12-07T07:08:51;11.47;;;5.93;;
45522;SDS011;31254;51.680;5.394;2022-12-07T07:11:18;10.97;;;5.77;;
45522;SDS011;31254;51.680;5.394;2022-12-07T07:13:45;10.93;;;5.13;;
45522;SDS011;31254;51.680;5.394;2022-12-07T07:16:12;10.57;;;5.57;;
45522;SDS011;31254;51.680;5.394;2022-12-07T07:18:39;10.37;;;5.47;;
45522;SDS011;31254;51.680;5.394;2022-12-07T07:21:08;16.70;;;5.70;;
45522;SDS011;31254;51.680;5.394;2022-12-07T07:23:34;9.23;;;5.00;;
45522;SDS011;31254;51.680;5.394;2022-12-07T07:26:01;8.73;;;5.57;;
45522;SDS011;31254;51.680;5.394;2022-12-07T07:28:28;9.33;;;4.33;;
45522;SDS011;31254;51.680;5.394;2022-12-07T07:30:54;10.23;;;5.63;;
45522;SDS011;31254;51.680;5.394;2022-12-07T07:33:21;9.23;;;5.17;;
45522;SDS011;31254;51.680;5.394;2022-12-07T07:35:48;16.40;;;5.43;;
45522;SDS011;31254;51.680;5.394;2022-12-07T07:38:14;9.90;;;5.80;;
45522;SDS011;31254;51.680;5.394;2022-12-07T07:40:43;11.87;;;6.50;;
45522;SDS011;31254;51.680;5.394;2022-12-07T07:43:10;10.70;;;6.00;;
45522;SDS011;31254;51.680;5.394;2022-12-07T07:45:37;10.23;;;5.50;;
45522;SDS011;31254;51.680;5.394;2022-12-07T07:48:04;9.10;;;5.37;;
45522;SDS011;31254;51.680;5.394;2022-12-07T07:50:30;12.07;;;5.13;;
45522;SDS011;31254;51.680;5.394;2022-12-07T07:52:57;8.17;;;5.17;;
45522;SDS011;31254;51.680;5.394;2022-12-07T07:55:24;13.37;;;5.63;;
45522;SDS011;31254;51.680;5.394;2022-12-07T07:57:53;17.13;;;5.73;;
45522;SDS011;31254;51.680;5.394;2022-12-07T08:00:20;13.50;;;6.23;;
45522;SDS011;31254;51.680;5.394;2022-12-07T08:02:47;12.87;;;6.07;;
45522;SDS011;31254;51.680;5.394;2022-12-07T08:05:14;9.73;;;6.17;;
45522;SDS011;31254;51.680;5.394;2022-12-07T08:07:41;14.80;;;5.90;;
45522;SDS011;31254;51.680;5.394;2022-12-07T08:10:09;12.60;;;5.83;;
45522;SDS011;31254;51.680;5.394;2022-12-07T08:12:40;12.93;;;6.00;;
45522;SDS011;31254;51.680;5.394;2022-12-07T08:15:28;10.47;;;5.77;;
45522;SDS011;31254;51.680;5.394;2022-12-07T08:17:58;11.37;;;5.60;;
45522;SDS011;31254;51.680;5.394;2022-12-07T08:20:25;15.57;;;6.10;;
45522;SDS011;31254;51.680;5.394;2022-12-07T08:22:58;16.67;;;5.70;;
45522;SDS011;31254;51.680;5.394;2022-12-07T08:25:27;17.95;;;6.95;;
45522;SDS011;31254;51.680;5.394;2022-12-07T08:27:54;9.63;;;5.57;;
45522;SDS011;31254;51.680;5.394;2022-12-07T08:30:21;14.65;;;5.45;;
45522;SDS011;31254;51.680;5.394;2022-12-07T08:32:48;14.00;;;6.63;;
45522;SDS011;31254;51.680;5.394;2022-12-07T08:35:15;10.17;;;5.10;;
45522;SDS011;31254;51.680;5.394;2022-12-07T08:37:42;11.33;;;5.40;;
45522;SDS011;31254;51.680;5.394;2022-12-07T08:40:11;13.23;;;4.57;;
45522;SDS011;31254;51.680;5.394;2022-12-07T08:42:48;19.87;;;5.30;;
45522;SDS011;31254;51.680;5.394;2022-12-07T08:45:18;14.07;;;4.47;;
45522;SDS011;31254;51.680;5.394;2022-12-07T08:47:55;16.53;;;4.57;;
45522;SDS011;31254;51.680;5.394;2022-12-07T08:50:31;8.48;;;4.38;;
45522;SDS011;31254;51.680;5.394;2022-12-07T08:52:59;8.93;;;4.17;;
45522;SDS011;31254;51.680;5.394;2022-12-07T08:55:27;15.10;;;4.33;;
45522;SDS011;31254;51.680;5.394;2022-12-07T08:57:55;9.73;;;3.67;;
45522;SDS011;31254;51.680;5.394;2022-12-07T09:00:25;10.23;;;3.63;;
45522;SDS011;31254;51.680;5.394;2022-12-07T09:02:54;10.57;;;3.90;;
45522;SDS011;31254;51.680;5.394;2022-12-07T09:05:23;9.70;;;4.47;;
45522;SDS011;31254;51.680;5.394;2022-12-07T09:07:51;10.93;;;4.20;;
45522;SDS011;31254;51.680;5.394;2022-12-07T09:10:22;16.37;;;3.90;;
45522;SDS011;31254;51.680;5.394;2022-12-07T09:12:49;10.17;;;3.67;;
45522;SDS011;31254;51.680;5.394;2022-12-07T09:15:16;14.47;;;3.60;;
45522;SDS011;31254;51.680;5.394;2022-12-07T09:17:43;7.20;;;3.27;;
45522;SDS011;31254;51.680;5.394;2022-12-07T09:20:09;14.23;;;3.40;;
45522;SDS011;31254;51.680;5.394;2022-12-07T09:22:36;11.17;;;3.53;;
45522;SDS011;31254;51.680;5.394;2022-12-07T09:25:03;8.33;;;3.40;;
45522;SDS011;31254;51.680;5.394;2022-12-07T09:27:30;20.33;;;9.63;;
45522;SDS011;31254;51.680;5.394;2022-12-07T09:29:57;12.93;;;6.50;;
45522;SDS011;31254;51.680;5.394;2022-12-07T09:32:26;9.30;;;4.47;;
45522;SDS011;31254;51.680;5.394;2022-12-07T09:34:53;14.77;;;4.00;;
45522;SDS011;31254;51.680;5.394;2022-12-07T09:37:19;15.90;;;4.30;;
45522;SDS011;31254;51.680;5.394;2022-12-07T09:39:46;9.73;;;3.50;;
45522;SDS011;31254;51.680;5.394;2022-12-07T09:42:28;12.30;;;3.15;;
45522;SDS011;31254;51.680;5.394;2022-12-07T09:44:55;8.70;;;3.50;;
45522;SDS011;31254;51.680;5.394;2022-12-07T09:47:24;5.25;;;2.85;;
45522;SDS011;31254;51.680;5.394;2022-12-07T09:49:53;10.20;;;3.90;;
45522;SDS011;31254;51.680;5.394;2022-12-07T09:52:29;8.95;;;3.30;;
45522;SDS011;31254;51.680;5.394;2022-12-07T09:55:03;7.05;;;2.88;;
45522;SDS011;31254;51.680;5.394;2022-12-07T09:57:42;11.02;;;3.33;;
45522;SDS011;31254;51.680;5.394;2022-12-07T10:00:13;9.38;;;3.55;;
45522;SDS011;31254;51.680;5.394;2022-12-07T10:02:58;6.65;;;3.00;;
45522;SDS011;31254;51.680;5.394;2022-12-07T10:05:30;12.43;;;3.20;;
45522;SDS011;31254;51.680;5.394;2022-12-07T10:07:58;8.38;;;2.72;;
45522;SDS011;31254;51.680;5.394;2022-12-07T10:10:26;8.82;;;2.63;;
45522;SDS011;31254;51.680;5.394;2022-12-07T10:13:04;7.88;;;2.92;;
45522;SDS011;31254;51.680;5.394;2022-12-07T10:26:56;7.15;;;2.53;;
45522;SDS011;31254;51.680;5.394;2022-12-07T10:29:34;6.80;;;2.20;;
45522;SDS011;31254;51.680;5.394;2022-12-07T10:32:26;6.88;;;2.40;;
45522;SDS011;31254;51.680;5.394;2022-12-07T10:37:49;7.35;;;2.30;;
45522;SDS011;31254;51.680;5.394;2022-12-07T10:40:34;9.68;;;2.72;;
45522;SDS011;31254;51.680;5.394;2022-12-07T10:43:21;4.18;;;1.90;;
45522;SDS011;31254;51.680;5.394;2022-12-07T10:51:55;5.18;;;2.30;;
45522;SDS011;31254;51.680;5.394;2022-12-07T11:00:25;8.38;;;2.00;;
45522;SDS011;31254;51.680;5.394;2022-12-07T11:05:43;8.05;;;1.85;;
45522;SDS011;31254;51.680;5.394;2022-12-07T11:08:27;7.82;;;2.03;;
45522;SDS011;31254;51.680;5.394;2022-12-07T11:11:06;11.95;;;2.53;;
45522;SDS011;31254;51.680;5.394;2022-12-07T11:22:08;4.88;;;1.65;;
45522;SDS011;31254;51.680;5.394;2022-12-07T11:27:37;4.10;;;1.75;;
45522;SDS011;31254;51.680;5.394;2022-12-07T11:38:20;5.93;;;1.60;;
45522;SDS011;31254;51.680;5.394;2022-12-07T11:40:56;8.00;;;1.92;;
45522;SDS011;31254;51.680;5.394;2022-12-07T11:46:22;8.13;;;1.77;;
45522;SDS011;31254;51.680;5.394;2022-12-07T11:48:55;5.60;;;1.50;;
45522;SDS011;31254;51.680;5.394;2022-12-07T11:51:28;10.73;;;2.28;;
45522;SDS011;31254;51.680;5.394;2022-12-07T11:54:45;8.63;;;2.42;;
45522;SDS011;31254;51.680;5.394;2022-12-07T11:57:00;6.97;;;1.90;;
45522;SDS011;31254;51.680;5.394;2022-12-07T11:59:38;5.70;;;1.85;;
45522;SDS011;31254;51.680;5.394;2022-12-07T12:07:15;8.43;;;2.55;;
45522;SDS011;31254;51.680;5.394;2022-12-07T12:10:06;8.50;;;2.50;;
45522;SDS011;31254;51.680;5.394;2022-12-07T12:16:16;10.15;;;1.80;;
45522;SDS011;31254;51.680;5.394;2022-12-07T12:19:11;6.90;;;2.00;;
45522;SDS011;31254;51.680;5.394;2022-12-07T12:21:49;6.82;;;2.10;;
45522;SDS011;31254;51.680;5.394;2022-12-07T12:24:33;9.23;;;2.22;;
45522;SDS011;31254;51.680;5.394;2022-12-07T12:30:45;8.35;;;1.65;;
45522;SDS011;31254;51.680;5.394;2022-12-07T12:46:55;2.88;;;1.08;;
45522;SDS011;31254;51.680;5.394;2022-12-07T12:54:32;3.47;;;0.90;;
45522;SDS011;31254;51.680;5.394;2022-12-07T12:57:11;3.95;;;0.90;;
45522;SDS011;31254;51.680;5.394;2022-12-07T12:59:42;4.15;;;0.85;;
45522;SDS011;31254;51.680;5.394;2022-12-07T13:02:27;4.22;;;1.08;;
45522;SDS011;31254;51.680;5.394;2022-12-07T13:10:28;4.85;;;0.88;;
45522;SDS011;31254;51.680;5.394;2022-12-07T13:31:53;9.68;;;2.67;;
45522;SDS011;31254;51.680;5.394;2022-12-07T13:36:58;6.22;;;1.75;;
45522;SDS011;31254;51.680;5.394;2022-12-07T13:39:29;4.78;;;1.42;;
45522;SDS011;31254;51.680;5.394;2022-12-07T13:41:56;4.97;;;1.27;;
45522;SDS011;31254;51.680;5.394;2022-12-07T13:44:26;4.10;;;1.30;;
45522;SDS011;31254;51.680;5.394;2022-12-07T13:46:59;6.70;;;1.27;;
45522;SDS011;31254;51.680;5.394;2022-12-07T13:49:36;4.78;;;1.10;;
45522;SDS011;31254;51.680;5.394;2022-12-07T13:52:14;3.47;;;1.17;;
45522;SDS011;31254;51.680;5.394;2022-12-07T13:54:48;9.00;;;1.20;;
45522;SDS011;31254;51.680;5.394;2022-12-07T13:57:22;5.10;;;1.15;;
45522;SDS011;31254;51.680;5.394;2022-12-07T13:59:52;4.28;;;1.15;;
45522;SDS011;31254;51.680;5.394;2022-12-07T14:02:20;3.38;;;1.00;;
45522;SDS011;31254;51.680;5.394;2022-12-07T14:07:58;5.35;;;1.48;;
45522;SDS011;31254;51.680;5.394;2022-12-07T14:10:28;6.55;;;1.92;;
45522;SDS011;31254;51.680;5.394;2022-12-07T14:12:57;6.10;;;1.38;;
45522;SDS011;31254;51.680;5.394;2022-12-07T14:15:34;8.95;;;1.20;;
45522;SDS011;31254;51.680;5.394;2022-12-07T14:18:02;4.57;;;0.80;;
45522;SDS011;31254;51.680;5.394;2022-12-07T14:20:34;3.95;;;0.80;;
45522;SDS011;31254;51.680;5.394;2022-12-07T14:23:04;3.47;;;0.50;;
45522;SDS011;31254;51.680;5.394;2022-12-07T14:25:47;4.57;;;0.65;;
45522;SDS011;31254;51.680;5.394;2022-12-07T14:28:37;3.67;;;0.80;;
45522;SDS011;31254;51.680;5.394;2022-12-07T14:31:17;4.88;;;0.82;;
45522;SDS011;31254;51.680;5.394;2022-12-07T14:33:58;4.78;;;1.40;;
45522;SDS011;31254;51.680;5.394;2022-12-07T14:36:25;4.65;;;1.80;;
45522;SDS011;31254;51.680;5.394;2022-12-07T14:38:52;8.15;;;2.22;;
45522;SDS011;31254;51.680;5.394;2022-12-07T14:41:22;5.45;;;1.75;;
45522;SDS011;31254;51.680;5.394;2022-12-07T14:44:12;4.63;;;1.63;;
45522;SDS011;31254;51.680;5.394;2022-12-07T14:46:59;5.05;;;2.13;;
45522;SDS011;31254;51.680;5.394;2022-12-07T14:49:45;5.35;;;1.70;;
45522;SDS011;31254;51.680;5.394;2022-12-07T14:52:26;5.28;;;1.92;;
45522;SDS011;31254;51.680;5.394;2022-12-07T14:55:19;2.92;;;1.65;;
45522;SDS011;31254;51.680;5.394;2022-12-07T14:57:49;3.00;;;1.25;;
45522;SDS011;31254;51.680;5.394;2022-12-07T15:00:19;2.47;;;0.77;;
45522;SDS011;31254;51.680;5.394;2022-12-07T15:02:47;3.42;;;0.80;;
45522;SDS011;31254;51.680;5.394;2022-12-07T15:05:14;1.65;;;0.60;;
45522;SDS011;31254;51.680;5.394;2022-12-07T15:07:43;3.05;;;0.60;;
45522;SDS011;31254;51.680;5.394;2022-12-07T15:10:16;2.35;;;0.70;;
45522;SDS011;31254;51.680;5.394;2022-12-07T15:12:49;1.20;;;0.70;;
45522;SDS011;31254;51.680;5.394;2022-12-07T15:15:16;3.30;;;0.68;;
45522;SDS011;31254;51.680;5.394;2022-12-07T15:17:57;1.52;;;0.70;;
45522;SDS011;31254;51.680;5.394;2022-12-07T15:20:28;1.83;;;0.80;;
45522;SDS011;31254;51.680;5.394;2022-12-07T15:22:55;2.35;;;0.70;;
45522;SDS011;31254;51.680;5.394;2022-12-07T15:25:21;1.67;;;0.60;;
45522;SDS011;31254;51.680;5.394;2022-12-07T15:27:48;1.98;;;0.60;;
45522;SDS011;31254;51.680;5.394;2022-12-07T15:30:14;3.00;;;0.70;;
45522;SDS011;31254;51.680;5.394;2022-12-07T15:32:43;1.92;;;0.68;;
45522;SDS011;31254;51.680;5.394;2022-12-07T15:35:10;2.08;;;0.93;;
45522;SDS011;31254;51.680;5.394;2022-12-07T15:37:37;2.55;;;0.80;;
45522;SDS011;31254;51.680;5.394;2022-12-07T15:40:04;5.38;;;0.80;;
45522;SDS011;31254;51.680;5.394;2022-12-07T15:42:33;4.18;;;0.63;;
45522;SDS011;31254;51.680;5.394;2022-12-07T15:45:01;1.98;;;0.90;;
45522;SDS011;31254;51.680;5.394;2022-12-07T15:47:34;2.75;;;0.77;;
45522;SDS011;31254;51.680;5.394;2022-12-07T15:50:22;2.90;;;0.80;;
45522;SDS011;31254;51.680;5.394;2022-12-07T15:52:51;3.00;;;1.02;;
45522;SDS011;31254;51.680;5.394;2022-12-07T15:55:18;3.22;;;0.98;;
45522;SDS011;31254;51.680;5.394;2022-12-07T15:57:45;1.45;;;0.80;;
45522;SDS011;31254;51.680;5.394;2022-12-07T16:00:12;4.40;;;1.08;;
45522;SDS011;31254;51.680;5.394;2022-12-07T16:02:39;3.20;;;1.10;;
45522;SDS011;31254;51.680;5.394;2022-12-07T16:05:08;2.55;;;1.00;;
45522;SDS011;31254;51.680;5.394;2022-12-07T16:07:37;2.20;;;1.17;;
45522;SDS011;31254;51.680;5.394;2022-12-07T16:10:04;6.85;;;1.30;;
45522;SDS011;31254;51.680;5.394;2022-12-07T16:12:31;3.05;;;1.40;;
45522;SDS011;31254;51.680;5.394;2022-12-07T16:14:58;3.17;;;1.30;;
45522;SDS011;31254;51.680;5.394;2022-12-07T16:17:25;6.40;;;1.50;;
45522;SDS011;31254;51.680;5.394;2022-12-07T16:19:51;4.60;;;1.50;;
45522;SDS011;31254;51.680;5.394;2022-12-07T16:22:21;5.90;;;1.67;;
45522;SDS011;31254;51.680;5.394;2022-12-07T16:24:47;3.35;;;1.65;;
45522;SDS011;31254;51.680;5.394;2022-12-07T16:27:14;4.93;;;2.10;;
45522;SDS011;31254;51.680;5.394;2022-12-07T16:29:41;3.80;;;1.77;;
45522;SDS011;31254;51.680;5.394;2022-12-07T16:32:08;4.65;;;2.22;;
45522;SDS011;31254;51.680;5.394;2022-12-07T16:34:34;9.60;;;2.80;;
45522;SDS011;31254;51.680;5.394;2022-12-07T16:37:03;7.57;;;2.88;;
45522;SDS011;31254;51.680;5.394;2022-12-07T16:39:31;9.15;;;3.20;;
45522;SDS011;31254;51.680;5.394;2022-12-07T16:41:59;9.07;;;2.72;;
45522;SDS011;31254;51.680;5.394;2022-12-07T16:44:28;5.18;;;2.22;;
45522;SDS011;31254;51.680;5.394;2022-12-07T16:46:56;6.28;;;2.10;;
45522;SDS011;31254;51.680;5.394;2022-12-07T16:49:23;4.47;;;2.22;;
45522;SDS011;31254;51.680;5.394;2022-12-07T16:51:50;5.18;;;2.58;;
45522;SDS011;31254;51.680;5.394;2022-12-07T16:54:37;6.28;;;2.63;;
45522;SDS011;31254;51.680;5.394;2022-12-07T16:57:06;7.13;;;2.95;;
45522;SDS011;31254;51.680;5.394;2022-12-07T16:59:33;6.18;;;2.90;;
45522;SDS011;31254;51.680;5.394;2022-12-07T17:02:05;4.22;;;2.85;;
45522;SDS011;31254;51.680;5.394;2022-12-07T17:04:33;5.22;;;3.00;;
45522;SDS011;31254;51.680;5.394;2022-12-07T17:07:00;8.35;;;3.17;;
45522;SDS011;31254;51.680;5.394;2022-12-07T17:09:26;5.85;;;3.33;;
45522;SDS011;31254;51.680;5.394;2022-12-07T17:11:55;7.45;;;4.35;;
45522;SDS011;31254;51.680;5.394;2022-12-07T17:14:27;6.30;;;3.42;;